Time;durP1;ratioP1;P1;durP2;ratioP2;P2;SDS_P1;SDS_P2;PMS_P1;PMS_P2;Temp;Humidity;BMP_temperature;BMP_pressure;BME280_temperature;BME280_humidity;BME280_pressure;Samples;Min_cycle;Max_cycle;Signal;HPM_P1;HPM_P2
2023/12/19 00:01:29;;;;;;;25.92;23.38;;;;;;;0.83;77.53;96165.91;5097062;28;20227;-69
2023/12/19 00:03:56;;;;;;;27.17;24.48;;;;;;;0.85;77.89;96171.91;5098610;28;20589;-69
2023/12/19 00:06:23;;;;;;;26.70;24.10;;;;;;;0.84;77.73;96168.38;5098544;28;20246;-69
2023/12/19 00:08:52;;;;;;;27.33;24.75;;;;;;;0.78;77.17;96171.34;5080584;28;20231;-69
2023/12/19 00:11:23;;;;;;;27.73;25.13;;;;;;;0.73;76.88;96166.69;5097721;28;20219;-69
2023/12/19 00:13:51;;;;;;;27.25;24.67;;;;;;;0.69;77.06;96168.28;5081277;28;20212;-69
2023/12/19 00:16:18;;;;;;;26.42;24.02;;;;;;;0.68;76.75;96170.19;5095295;28;20228;-68
2023/12/19 00:18:48;;;;;;;27.45;24.83;;;;;;;0.65;77.02;96169.91;5080974;28;20293;-69
2023/12/19 00:21:15;;;;;;;27.40;24.77;;;;;;;0.65;77.11;96175.31;5097785;28;20202;-69
2023/12/19 00:23:42;;;;;;;27.35;24.70;;;;;;;0.64;77.10;96170.97;5097430;28;20215;-69
2023/12/19 00:26:15;;;;;;;26.85;24.25;;;;;;;0.63;77.39;96174.78;5080370;28;20274;-69
2023/12/19 00:28:44;;;;;;;26.33;23.92;;;;;;;0.64;77.27;96173.69;5080907;28;20204;-69
2023/12/19 00:31:20;;;;;;;26.42;23.92;;;;;;;0.60;76.57;96188.88;5097936;28;20285;-69
2023/12/19 00:33:47;;;;;;;26.85;24.35;;;;;;;0.58;77.11;96186.44;5098069;28;20200;-69
2023/12/19 00:36:21;;;;;;;27.63;25.02;;;;;;;0.55;76.84;96186.16;5097574;28;20219;-69
2023/12/19 00:38:48;;;;;;;26.80;24.30;;;;;;;0.54;76.86;96193.44;5098143;28;20257;-69
2023/12/19 00:41:19;;;;;;;26.00;23.50;;;;;;;0.53;77.00;96188.28;5098101;28;20227;-69
2023/12/19 00:43:50;;;;;;;25.90;23.50;;;;;;;0.52;77.20;96186.66;5098013;28;20195;-69
2023/12/19 00:46:21;;;;;;;25.98;23.38;;;;;;;0.50;77.09;96188.81;5097669;28;20260;-68
2023/12/19 00:48:50;;;;;;;25.65;23.27;;;;;;;0.46;76.42;96183.09;5079609;28;20700;-69
2023/12/19 00:51:20;;;;;;;25.83;23.42;;;;;;;0.44;76.93;96177.94;5097437;28;20738;-69
2023/12/19 00:53:52;;;;;;;26.08;23.63;;;;;;;0.42;76.95;96173.84;5080801;28;20188;-69
2023/12/19 00:56:21;;;;;;;25.35;22.95;;;;;;;0.43;77.40;96178.19;5079754;28;20295;-69
2023/12/19 00:58:53;;;;;;;25.20;22.70;;;;;;;0.46;77.70;96177.66;5097100;28;20200;-69
2023/12/19 01:01:23;;;;;;;24.48;22.15;;;;;;;0.46;77.49;96172.22;5096834;28;20208;-69
2023/12/19 01:03:52;;;;;;;25.23;22.83;;;;;;;0.41;76.63;96174.94;5096887;28;20258;-69
2023/12/19 01:06:23;;;;;;;24.65;22.25;;;;;;;0.40;76.66;96167.84;5096510;28;20620;-69
2023/12/19 01:08:53;;;;;;;24.50;22.23;;;;;;;0.39;77.30;96171.66;5080373;28;20679;-68
2023/12/19 01:11:22;;;;;;;23.35;21.17;;;;;;;0.37;76.92;96157.53;5078781;28;20220;-68
2023/12/19 01:13:53;;;;;;;23.85;21.55;;;;;;;0.30;76.90;96152.31;5097698;28;20200;-68
2023/12/19 01:16:25;;;;;;;23.00;20.80;;;;;;;0.29;77.00;96149.84;5062773;28;20228;-68
2023/12/19 01:18:55;;;;;;;22.60;20.50;;;;;;;0.29;77.17;96150.69;5076861;28;20185;-68
2023/12/19 01:21:23;;;;;;;23.13;20.95;;;;;;;0.30;76.86;96152.31;5059339;28;20207;-68
2023/12/19 01:23:50;;;;;;;22.92;20.73;;;;;;;0.30;76.89;96146.09;5076332;28;20189;-69
2023/12/19 01:26:20;;;;;;;21.90;19.90;;;;;;;0.32;77.26;96152.06;5059509;28;20545;-69
2023/12/19 01:28:47;;;;;;;21.95;20.05;;;;;;;0.34;77.28;96150.72;5075584;28;20629;-69
2023/12/19 01:31:18;;;;;;;22.60;20.40;;;;;;;0.36;77.59;96147.72;5059500;28;20266;-69
2023/12/19 01:33:49;;;;;;;22.05;20.05;;;;;;;0.32;77.07;96149.34;5059020;28;20621;-69
2023/12/19 01:36:17;;;;;;;23.00;20.80;;;;;;;0.30;77.43;96144.19;5059627;28;20287;-69
2023/12/19 01:38:44;;;;;;;21.85;19.92;;;;;;;0.32;77.16;96143.91;5059914;28;20197;-69
2023/12/19 01:41:11;;;;;;;22.63;20.63;;;;;;;0.28;76.74;96140.91;5076525;28;20189;-69
2023/12/19 01:43:39;;;;;;;21.00;18.90;;;;;;;0.25;77.05;96152.28;5058695;28;20208;-69
2023/12/19 01:46:10;;;;;;;20.88;18.98;;;;;;;0.25;76.84;96152.28;5059652;28;20577;-69
2023/12/19 01:48:43;;;;;;;21.15;19.25;;;;;;;0.27;77.39;96143.91;5075895;28;20657;-69
2023/12/19 01:51:12;;;;;;;20.25;18.35;;;;;;;0.31;77.26;96139.56;5059380;28;20222;-69
2023/12/19 01:53:40;;;;;;;20.00;18.10;;;;;;;0.29;76.88;96139.00;5059976;28;20246;-69
2023/12/19 01:56:08;;;;;;;18.88;17.17;;;;;;;0.27;77.12;96143.91;5058875;28;20227;-69
2023/12/19 01:58:36;;;;;;;21.70;19.75;;;;;;;0.27;77.56;96139.28;5059326;28;20262;-69
2023/12/19 02:01:04;;;;;;;23.25;20.95;;;;;;;0.26;77.22;96140.38;5059357;28;20266;-69
2023/12/19 02:03:33;;;;;;;22.55;20.55;;;;;;;0.21;76.30;96135.69;5075933;28;20200;-69
2023/12/19 02:06:06;;;;;;;22.35;20.25;;;;;;;0.12;76.42;96137.28;5075749;28;20193;-70
2023/12/19 02:08:35;;;;;;;20.98;18.90;;;;;;;0.12;77.25;96133.75;5058901;28;20605;-70
2023/12/19 02:11:02;;;;;;;21.92;19.90;;;;;;;0.11;77.36;96130.22;5058232;28;20243;-70
2023/12/19 02:13:35;;;;;;;21.63;19.63;;;;;;;0.11;77.31;96123.97;5058252;28;20204;-70
2023/12/19 02:16:04;;;;;;;21.85;19.67;;;;;;;0.13;77.28;96127.25;5087866;28;20682;-69
2023/12/19 02:18:32;;;;;;;22.30;20.02;;;;;;;0.11;76.83;96122.09;5061908;28;20586;-69
2023/12/19 02:21:02;;;;;;;22.27;20.08;;;;;;;0.06;76.86;96113.91;5095925;28;20192;-69
2023/12/19 02:23:38;;;;;;;20.92;18.92;;;;;;;0.04;77.22;96109.81;5078373;28;20273;-69
2023/12/19 02:26:10;;;;;;;20.55;18.58;;;;;;;0.05;77.38;96114.16;5078372;28;20227;-69
2023/12/19 02:28:38;;;;;;;21.02;18.92;;;;;;;-0.01;76.68;96121.44;5077867;28;20208;-69
2023/12/19 02:31:06;;;;;;;17.23;15.52;;;;;;;0.02;77.27;96111.97;5078946;28;20258;-69
2023/12/19 02:33:34;;;;;;;15.00;13.77;;;;;;;0.03;77.17;96113.59;5095990;28;20219;-69
2023/12/19 02:36:06;;;;;;;13.65;12.48;;;;;;;0.06;77.55;96116.59;5078876;28;20241;-69
2023/12/19 02:38:35;;;;;;;13.48;12.27;;;;;;;0.11;77.62;96115.81;5078634;28;20188;-69
2023/12/19 02:41:10;;;;;;;18.58;16.77;;;;;;;0.13;77.72;96117.19;5078115;28;20184;-69
2023/12/19 02:43:41;;;;;;;18.92;17.13;;;;;;;0.10;76.78;96115.00;5078093;28;20248;-69
2023/12/19 02:46:14;;;;;;;18.08;16.38;;;;;;;0.03;76.38;96117.13;5096173;28;20192;-69
2023/12/19 02:48:42;;;;;;;17.85;16.15;;;;;;;-0.02;76.52;96109.78;5095741;28;20185;-69
2023/12/19 02:51:09;;;;;;;18.75;17.05;;;;;;;-0.07;76.41;96112.47;5077734;28;20243;-69
2023/12/19 02:53:40;;;;;;;19.98;18.17;;;;;;;-0.08;76.86;96112.72;5095718;28;20261;-69
2023/12/19 02:56:09;;;;;;;20.40;18.38;;;;;;;-0.11;76.79;96114.06;5095445;28;20196;-69
2023/12/19 02:58:36;;;;;;;18.55;16.83;;;;;;;-0.14;76.48;96117.28;5095923;28;20212;-69
2023/12/19 03:01:07;;;;;;;18.83;17.20;;;;;;;-0.14;76.97;96114.59;5077826;28;20184;-69
2023/12/19 03:03:35;;;;;;;19.42;17.67;;;;;;;-0.10;77.36;96112.16;5093029;28;20725;-69
2023/12/19 03:06:04;;;;;;;18.65;16.77;;;;;;;-0.07;77.09;96111.66;5094507;28;20203;-69
2023/12/19 03:08:31;;;;;;;16.60;15.15;;;;;;;-0.06;77.49;96105.16;5094336;28;20235;-69
2023/12/19 03:11:03;;;;;;;16.73;15.32;;;;;;;-0.09;77.27;96114.59;5095354;28;20228;-69
2023/12/19 03:13:30;;;;;;;16.20;14.75;;;;;;;-0.07;77.31;96114.38;5094958;28;20208;-69
2023/12/19 03:15:58;;;;;;;14.95;13.65;;;;;;;-0.04;77.62;96113.81;5095492;28;20241;-69
2023/12/19 03:18:28;;;;;;;14.50;13.30;;;;;;;-0.03;77.62;96107.34;5077671;28;20253;-69
2023/12/19 03:20:58;;;;;;;16.35;14.95;;;;;;;-0.01;77.07;96105.97;5095393;28;20180;-69
2023/12/19 03:23:27;;;;;;;15.55;14.05;;;;;;;0.00;77.19;96104.13;5095121;28;20207;-69
2023/12/19 03:25:54;;;;;;;14.38;13.18;;;;;;;-0.02;77.66;96104.34;5094167;28;20241;-69
2023/12/19 03:28:27;;;;;;;15.65;14.25;;;;;;;-0.04;77.37;96111.94;5094665;28;20677;-69
2023/12/19 03:30:57;;;;;;;16.33;14.82;;;;;;;-0.05;77.58;96104.88;5078167;28;20212;-69
2023/12/19 03:33:25;;;;;;;17.00;15.40;;;;;;;-0.11;76.86;96114.06;5095113;28;20195;-69
2023/12/19 03:35:55;;;;;;;17.38;15.73;;;;;;;-0.20;76.70;96107.47;5076207;28;20200;-69
2023/12/19 03:38:24;;;;;;;17.77;15.98;;;;;;;-0.20;77.12;96115.59;5077292;28;20212;-69
2023/12/19 03:40:57;;;;;;;18.70;16.80;;;;;;;-0.23;76.87;96110.69;5095204;28;20184;-69
2023/12/19 03:43:27;;;;;;;19.38;17.50;;;;;;;-0.26;76.93;96113.94;5095013;28;20219;-69
2023/12/19 03:46:00;;;;;;;18.98;17.15;;;;;;;-0.32;77.19;96104.94;5078291;28;20654;-69
2023/12/19 03:48:29;;;;;;;19.20;17.27;;;;;;;-0.30;77.31;96104.69;5094118;28;20200;-69
2023/12/19 03:50:58;;;;;;;18.92;16.98;;;;;;;-0.30;77.85;96101.97;5094020;28;20220;-69
2023/12/19 03:53:26;;;;;;;17.98;16.27;;;;;;;-0.28;77.67;96094.41;5076987;28;20216;-70
2023/12/19 03:55:54;;;;;;;18.10;16.40;;;;;;;-0.29;77.27;96100.88;5094096;28;20220;-69
2023/12/19 03:58:24;;;;;;;19.27;17.48;;;;;;;-0.28;77.49;96089.78;5094421;28;20248;-69
2023/12/19 04:00:53;;;;;;;20.17;18.20;;;;;;;-0.26;77.33;96092.22;5095274;28;20204;-70
2023/12/19 04:03:22;;;;;;;21.13;18.88;;;;;;;-0.31;76.60;96089.50;5094754;28;20204;-69
2023/12/19 04:05:49;;;;;;;19.67;17.70;;;;;;;-0.33;76.90;96087.06;5077395;28;20238;-70
2023/12/19 04:08:17;;;;;;;17.35;15.85;;;;;;;-0.31;77.03;96090.31;5095117;28;20200;-69
2023/12/19 04:10:44;;;;;;;18.25;16.50;;;;;;;-0.27;77.69;96085.19;5076934;28;20210;-69
2023/12/19 04:13:12;;;;;;;20.10;18.27;;;;;;;-0.30;77.17;96075.66;5094437;28;20277;-69
2023/12/19 04:15:40;;;;;;;21.02;19.02;;;;;;;-0.32;77.05;96080.56;5063830;28;20244;-68
2023/12/19 04:18:14;;;;;;;20.92;18.88;;;;;;;-0.37;76.51;96080.50;5074747;28;20181;-68
2023/12/19 04:20:41;;;;;;;20.40;18.48;;;;;;;-0.42;76.92;96082.38;5057355;28;20200;-68
2023/12/19 04:23:11;;;;;;;20.13;18.23;;;;;;;-0.43;77.24;96083.44;5074672;28;20223;-68
2023/12/19 04:25:38;;;;;;;20.13;18.40;;;;;;;-0.44;77.18;96085.31;5057186;28;20196;-68
2023/12/19 04:28:11;;;;;;;19.63;17.83;;;;;;;-0.44;77.47;96089.91;5074250;28;20275;-68
2023/12/19 04:30:38;;;;;;;24.33;22.15;;;;;;;-0.41;77.38;96092.13;5074734;28;20189;-69
2023/12/19 04:33:07;;;;;;;23.55;21.50;;;;;;;-0.38;77.81;96091.59;5056906;28;20210;-68
2023/12/19 04:35:43;;;;;;;24.15;21.77;;;;;;;-0.33;77.79;96094.34;5073722;28;20201;-69
2023/12/19 04:38:11;;;;;;;19.77;17.98;;;;;;;-0.29;77.26;96090.88;5073811;28;20213;-68
2023/12/19 04:40:39;;;;;;;21.48;19.42;;;;;;;-0.28;77.62;96099.81;5056115;28;20217;-69
2023/12/19 04:43:09;;;;;;;21.80;19.50;;;;;;;-0.24;77.58;96095.50;5073883;28;20221;-69
2023/12/19 04:45:36;;;;;;;21.25;19.27;;;;;;;-0.19;77.70;96102.88;5057671;28;20197;-69
2023/12/19 04:48:05;;;;;;;22.85;20.73;;;;;;;-0.23;77.28;96110.69;5078138;28;20223;-69
2023/12/19 04:50:34;;;;;;;22.85;20.75;;;;;;;-0.31;76.57;96111.19;5077638;28;20205;-69
2023/12/19 04:53:02;;;;;;;23.65;21.45;;;;;;;-0.41;76.79;96117.31;5077613;28;20232;-69
2023/12/19 04:55:32;;;;;;;23.45;21.35;;;;;;;-0.46;76.67;96120.00;5077301;28;20322;-69
2023/12/19 04:57:59;;;;;;;24.77;22.60;;;;;;;-0.51;76.54;96119.94;5061258;28;20266;-68
2023/12/19 05:00:26;;;;;;;25.95;23.55;;;;;;;-0.53;77.15;96117.50;5077001;28;20225;-69
2023/12/19 05:02:55;;;;;;;26.80;24.23;;;;;;;-0.54;76.93;96118.59;5077439;28;20173;-70
2023/12/19 05:05:27;;;;;;;25.40;23.02;;;;;;;-0.52;77.17;96127.25;5077350;28;20272;-69
2023/12/19 05:07:56;;;;;;;26.38;23.88;;;;;;;-0.50;77.49;96121.59;5076796;28;20232;-66
2023/12/19 05:10:27;;;;;;;26.15;23.85;;;;;;;-0.46;77.76;96124.63;5077606;28;20185;-68
2023/12/19 05:12:55;;;;;;;24.73;22.50;;;;;;;-0.44;77.73;96125.97;5077834;28;20229;-69
2023/12/19 05:15:26;;;;;;;24.35;22.10;;;;;;;-0.44;77.60;96123.25;5085283;28;20262;-69
2023/12/19 05:17:55;;;;;;;27.17;24.48;;;;;;;-0.44;77.60;96119.72;5097240;28;20263;-69
2023/12/19 05:20:23;;;;;;;27.70;25.00;;;;;;;-0.49;77.02;96123.22;5097520;28;20204;-69
2023/12/19 05:22:50;;;;;;;27.60;24.90;;;;;;;-0.51;77.44;96128.06;5097145;28;20573;-69
2023/12/19 05:25:17;;;;;;;27.08;24.48;;;;;;;-0.51;77.43;96122.66;5097847;28;20192;-69
2023/12/19 05:27:49;;;;;;;26.63;24.13;;;;;;;-0.56;77.57;96123.44;5098253;28;20185;-69
2023/12/19 05:30:17;;;;;;;24.77;22.45;;;;;;;-0.54;78.14;96121.28;5097391;28;20204;-69
2023/12/19 05:32:45;;;;;;;24.15;21.95;;;;;;;-0.53;77.87;96113.97;5097230;28;20247;-69
2023/12/19 05:35:14;;;;;;;25.38;23.00;;;;;;;-0.50;78.11;96113.47;5097257;28;20212;-69
2023/12/19 05:37:43;;;;;;;25.27;22.85;;;;;;;-0.47;78.24;96121.09;5097635;28;20212;-69
2023/12/19 05:40:12;;;;;;;26.50;24.00;;;;;;;-0.43;78.37;96121.38;5097991;28;20257;-69
2023/12/19 05:42:39;;;;;;;25.25;22.70;;;;;;;-0.41;78.16;96122.75;5097441;28;20200;-69
2023/12/19 05:45:13;;;;;;;25.75;23.25;;;;;;;-0.38;78.29;96121.44;5079519;28;20196;-69
2023/12/19 05:47:43;;;;;;;25.48;22.90;;;;;;;-0.42;77.37;96125.72;5096266;28;20251;-69
2023/12/19 05:50:14;;;;;;;24.13;21.95;;;;;;;-0.46;77.82;96127.31;5079978;28;20204;-69
2023/12/19 05:52:41;;;;;;;29.40;26.90;;;;;;;-0.47;77.85;96125.66;5097430;28;20308;-69
2023/12/19 05:55:11;;;;;;;27.35;24.85;;;;;;;-0.48;77.50;96130.28;5079199;28;20224;-69
2023/12/19 05:57:40;;;;;;;26.90;24.38;;;;;;;-0.47;77.76;96131.09;5096442;28;20295;-69
2023/12/19 06:00:11;;;;;;;27.00;24.45;;;;;;;-0.47;77.90;96125.66;5078778;28;20208;-69
2023/12/19 06:02:42;;;;;;;28.75;26.05;;;;;;;-0.44;78.07;96119.72;5078601;28;20200;-69
2023/12/19 06:05:12;;;;;;;26.10;23.60;;;;;;;-0.45;77.91;96126.25;5096602;28;20564;-69
2023/12/19 06:07:41;;;;;;;25.85;23.45;;;;;;;-0.45;78.01;96112.69;5096779;28;20209;-69
2023/12/19 06:10:10;;;;;;;25.10;22.70;;;;;;;-0.41;78.53;96113.81;5097001;28;20177;-70
2023/12/19 06:12:38;;;;;;;26.60;24.02;;;;;;;-0.38;78.67;96116.81;5096498;28;20277;-69
2023/12/19 06:15:11;;;;;;;29.75;26.85;;;;;;;-0.35;78.37;96115.50;5094478;28;20232;-69
2023/12/19 06:17:43;;;;;;;31.27;28.27;;;;;;;-0.35;77.99;96107.34;5096416;28;20263;-69
2023/12/19 06:20:14;;;;;;;31.20;28.10;;;;;;;-0.37;77.22;96109.50;5095345;28;20196;-69
2023/12/19 06:22:43;;;;;;;31.63;28.67;;;;;;;-0.41;77.05;96100.25;5096285;28;20238;-69
2023/12/19 06:25:10;;;;;;;31.27;28.25;;;;;;;-0.44;77.18;96098.06;5096122;28;20195;-69
2023/12/19 06:27:43;;;;;;;29.17;26.48;;;;;;;-0.42;77.25;96102.16;5078785;28;20306;-69
2023/12/19 06:30:12;;;;;;;30.75;27.65;;;;;;;-0.41;77.58;96105.66;5078299;28;20200;-70
2023/12/19 06:32:47;;;;;;;32.28;29.27;;;;;;;-0.42;77.63;96098.63;5094953;28;20204;-70
2023/12/19 06:35:24;;;;;;;32.20;29.20;;;;;;;-0.44;77.58;96106.19;5078529;28;20198;-71
2023/12/19 06:37:55;;;;;;;36.97;33.38;;;;;;;-0.41;77.64;96106.47;5096251;28;20184;-70
2023/12/19 06:40:24;;;;;;;42.65;38.05;;;;;;;-0.35;78.09;96110.06;5096412;28;20518;-71
2023/12/19 06:42:51;;;;;;;39.85;35.65;;;;;;;-0.32;77.80;96110.38;5077503;28;20200;-71
2023/12/19 06:45:18;;;;;;;33.88;30.52;;;;;;;-0.31;77.80;96112.00;5095912;28;20238;-71
2023/12/19 06:47:48;;;;;;;35.05;31.40;;;;;;;-0.33;77.45;96114.16;5096070;28;20191;-71
2023/12/19 06:50:18;;;;;;;36.05;32.28;;;;;;;-0.34;77.73;96107.09;5095779;28;20202;-70
2023/12/19 06:52:46;;;;;;;37.25;33.65;;;;;;;-0.31;78.11;96111.19;5078646;28;20220;-70
2023/12/19 06:55:16;;;;;;;39.55;35.50;;;;;;;-0.23;78.33;96110.69;5095902;28;20290;-70
2023/12/19 06:57:44;;;;;;;38.03;33.95;;;;;;;-0.12;78.80;96106.19;5096129;28;20184;-71
2023/12/19 07:00:16;;;;;;;34.90;31.42;;;;;;;-0.05;78.72;96109.47;5096138;28;20184;-70
2023/12/19 07:02:44;;;;;;;35.33;31.92;;;;;;;0.01;78.69;96122.00;5096116;28;20286;-71
2023/12/19 07:05:12;;;;;;;38.83;35.00;;;;;;;0.09;78.71;96112.56;5095825;28;20196;-70
2023/12/19 07:07:40;;;;;;;39.92;36.05;;;;;;;0.12;78.62;96109.34;5095475;28;20184;-71
2023/12/19 07:10:09;;;;;;;42.25;38.20;;;;;;;0.17;78.33;96112.88;5094726;28;20201;-71
2023/12/19 07:12:38;;;;;;;46.78;42.38;;;;;;;0.24;78.76;96116.19;5094656;28;20212;-71
2023/12/19 07:15:07;;;;;;;54.08;48.90;;;;;;;0.34;78.97;96123.59;5093948;28;20279;-72
2023/12/19 07:17:37;;;;;;;53.80;48.70;;;;;;;0.45;79.69;96128.00;5094336;28;20211;-72
2023/12/19 07:20:08;;;;;;;60.75;55.08;;;;;;;0.54;79.26;96133.72;5078645;28;20196;-71
2023/12/19 07:22:42;;;;;;;64.82;58.85;;;;;;;0.65;79.75;96134.59;5077805;28;20199;-71
2023/12/19 07:25:10;;;;;;;67.55;60.97;;;;;;;0.73;80.01;96139.53;5095253;28;20267;-71
2023/12/19 07:27:39;;;;;;;65.22;58.65;;;;;;;0.79;79.77;96129.50;5095326;28;20265;-71
2023/12/19 07:30:07;;;;;;;81.63;73.93;;;;;;;0.88;79.67;96130.66;5095451;28;20271;-70
2023/12/19 07:32:36;;;;;;;73.45;65.95;;;;;;;0.97;79.27;96126.31;5095063;28;20277;-73
2023/12/19 07:35:06;;;;;;;84.22;76.57;;;;;;;1.06;79.64;96118.50;5095448;28;20245;-71
2023/12/19 07:37:34;;;;;;;86.47;78.55;;;;;;;1.15;78.93;96112.25;5095141;28;20243;-71
2023/12/19 07:40:05;;;;;;;89.05;81.05;;;;;;;1.27;79.61;96103.88;5095415;28;20184;-73
2023/12/19 07:42:34;;;;;;;71.63;64.82;;;;;;;1.41;78.52;96098.72;5095334;28;20180;-71
2023/12/19 07:45:02;;;;;;;84.63;76.95;;;;;;;1.55;79.08;96091.66;5078095;28;20606;-71
2023/12/19 07:47:29;;;;;;;71.90;65.10;;;;;;;1.68;78.76;96084.88;5094899;28;20209;-71
2023/12/19 07:49:58;;;;;;;57.97;52.47;;;;;;;1.78;78.28;96073.16;5094350;28;20219;-71
2023/12/19 07:52:28;;;;;;;77.43;70.43;;;;;;;1.92;78.18;96075.09;5094188;28;20671;-72
2023/12/19 07:54:55;;;;;;;75.47;68.68;;;;;;;2.04;78.33;96079.44;5095180;28;20192;-72
2023/12/19 07:57:26;;;;;;;74.05;67.32;;;;;;;2.13;77.50;96070.41;5077197;28;20253;-72
2023/12/19 07:59:54;;;;;;;79.05;72.13;;;;;;;2.24;77.49;96076.66;5095079;28;20210;-72
2023/12/19 08:02:21;;;;;;;75.32;68.65;;;;;;;2.38;77.63;96071.47;5094748;28;20313;-72
2023/12/19 08:04:48;;;;;;;71.00;64.50;;;;;;;2.52;77.05;96066.25;5077334;28;20201;-72
2023/12/19 08:07:15;;;;;;;72.63;65.82;;;;;;;2.63;76.96;96074.09;5077188;28;20227;-72
2023/12/19 08:09:43;;;;;;;94.35;85.43;;;;;;;2.72;76.61;96077.06;5095103;28;20185;-72
2023/12/19 08:12:10;;;;;;;104.60;94.75;;;;;;;2.80;75.77;96071.06;5094973;28;20274;-72
2023/12/19 08:14:39;;;;;;;108.20;98.43;;;;;;;2.86;75.93;96075.38;5092798;28;20565;-71
2023/12/19 08:17:08;;;;;;;102.50;93.18;;;;;;;2.97;75.41;96075.31;5077005;28;20232;-72
2023/12/19 08:19:39;;;;;;;100.72;91.28;;;;;;;3.07;75.41;96072.53;5095014;28;20199;-72
2023/12/19 08:22:09;;;;;;;94.10;85.25;;;;;;;3.16;75.54;96064.59;5097860;28;20204;-73
2023/12/19 08:24:37;;;;;;;97.05;87.97;;;;;;;3.23;74.62;96074.09;5098210;28;20615;-71
2023/12/19 08:27:05;;;;;;;93.68;84.82;;;;;;;3.32;74.70;96071.59;5097932;28;20212;-72
2023/12/19 08:29:33;;;;;;;77.82;70.72;;;;;;;3.44;74.63;96065.78;5081799;28;20234;-72
2023/12/19 08:32:02;;;;;;;73.90;67.18;;;;;;;3.55;74.75;96070.06;5098904;28;20250;-72
2023/12/19 08:34:29;;;;;;;67.03;60.92;;;;;;;3.66;74.99;96065.34;5098381;28;20197;-72
2023/12/19 08:36:56;;;;;;;61.13;55.55;;;;;;;3.78;74.12;96061.16;5098941;28;20219;-72
2023/12/19 08:39:26;;;;;;;65.63;59.50;;;;;;;3.89;73.75;96061.91;5098539;28;20224;-71
2023/12/19 08:41:53;;;;;;;66.20;60.13;;;;;;;4.06;73.56;96050.53;5080037;28;20201;-72
2023/12/19 08:44:20;;;;;;;65.30;59.30;;;;;;;4.23;73.35;96042.72;5098176;28;20181;-71
2023/12/19 08:46:47;;;;;;;61.28;55.65;;;;;;;4.33;72.84;96039.91;5097827;28;20208;-72
2023/12/19 08:49:17;;;;;;;55.90;50.78;;;;;;;4.42;72.73;96034.59;5098418;28;20200;-72
2023/12/19 08:51:49;;;;;;;51.95;47.35;;;;;;;4.59;72.86;96021.28;5098409;28;20188;-72
2023/12/19 08:54:18;;;;;;;48.42;44.13;;;;;;;4.71;71.59;96020.88;5098240;28;20239;-72
2023/12/19 08:56:46;;;;;;;50.00;45.40;;;;;;;4.83;71.51;96024.03;5080982;28;20222;-72
2023/12/19 08:59:15;;;;;;;42.15;38.35;;;;;;;4.97;71.01;96020.53;5097929;28;20513;-71
2023/12/19 09:01:44;;;;;;;41.40;37.70;;;;;;;5.06;70.75;96016.88;5098765;28;20246;-71
2023/12/19 09:04:13;;;;;;;40.42;36.72;;;;;;;5.15;70.58;96008.81;5097103;28;20210;-71
2023/12/19 09:06:45;;;;;;;38.95;35.45;;;;;;;5.25;69.77;96011.41;5080810;28;20200;-71
2023/12/19 09:09:16;;;;;;;38.92;35.42;;;;;;;5.34;69.44;95994.31;5080260;28;20208;-71
2023/12/19 09:11:44;;;;;;;37.65;34.08;;;;;;;5.46;69.68;95998.22;5097665;28;20191;-71
2023/12/19 09:14:14;;;;;;;39.17;35.63;;;;;;;5.60;69.43;95987.34;5079734;28;20672;-72
2023/12/19 09:16:48;;;;;;;37.22;34.00;;;;;;;5.69;68.32;95990.19;5077620;28;20510;-71
2023/12/19 09:19:18;;;;;;;36.67;33.40;;;;;;;5.78;68.06;95982.94;5076900;28;20200;-71
2023/12/19 09:21:48;;;;;;;38.55;34.83;;;;;;;5.87;67.41;95980.31;5074208;28;20209;-71
2023/12/19 09:24:15;;;;;;;71.22;63.95;;;;;;;5.98;67.00;95971.66;5060652;28;20205;-72
2023/12/19 09:26:44;;;;;;;65.30;59.05;;;;;;;6.07;67.06;95973.72;5058910;28;20201;-71
2023/12/19 09:29:17;;;;;;;64.80;58.47;;;;;;;6.12;67.13;95963.47;5059105;28;20280;-72
2023/12/19 09:31:47;;;;;;;142.70;130.80;;;;;;;6.22;67.07;95965.19;5077938;28;20270;-69
2023/12/19 09:34:14;;;;;;;68.38;61.53;;;;;;;6.28;66.72;95955.75;5075728;28;20310;-71
2023/12/19 09:36:41;;;;;;;68.10;61.40;;;;;;;6.36;66.65;95966.03;5076962;28;20622;-70
2023/12/19 09:39:14;;;;;;;67.30;60.50;;;;;;;6.48;66.26;95965.50;5077260;28;20239;-71
2023/12/19 09:41:49;;;;;;;64.32;57.97;;;;;;;6.59;65.72;95960.63;5060121;28;20196;-71
2023/12/19 09:44:17;;;;;;;70.97;63.67;;;;;;;6.68;64.75;95956.88;5076731;28;20499;-71
2023/12/19 09:46:49;;;;;;;70.40;63.00;;;;;;;6.77;64.87;95959.69;5059226;28;20204;-71
2023/12/19 09:49:17;;;;;;;69.25;62.45;;;;;;;6.88;65.03;95954.81;5059173;28;20632;-72
2023/12/19 09:51:47;;;;;;;74.20;66.93;;;;;;;6.98;64.19;95946.34;5076728;28;20181;-74
2023/12/19 09:54:17;;;;;;;76.70;69.07;;;;;;;7.07;63.99;95941.75;5075085;28;20729;-74
2023/12/19 09:56:46;;;;;;;73.53;65.75;;;;;;;7.12;62.87;95943.59;5059628;28;20209;-72
2023/12/19 09:59:21;;;;;;;71.03;63.88;;;;;;;7.18;62.55;95942.31;5059290;28;20209;-70
2023/12/19 10:01:49;;;;;;;69.10;55.60;;;;;;;7.18;61.94;95937.66;5075883;28;20211;-71
2023/12/19 10:04:18;;;;;;;68.10;57.85;;;;;;;7.21;62.06;95942.50;5076550;28;20185;-69
2023/12/19 10:06:55;;;;;;;69.35;62.25;;;;;;;7.20;61.41;95929.94;5076424;28;20620;-72
2023/12/19 10:09:26;;;;;;;70.88;63.53;;;;;;;7.16;61.11;95928.94;5076574;28;20212;-73
2023/12/19 10:12:09;;;;;;;72.40;64.75;;;;;;;7.08;60.85;95923.34;5075730;28;20205;-74
2023/12/19 10:14:36;;;;;;;70.38;63.15;;;;;;;6.98;61.50;95919.72;5075524;28;20224;-74
2023/12/19 10:17:06;;;;;;;68.53;61.70;;;;;;;6.92;61.43;95915.47;5096603;28;20216;-74
2023/12/19 10:19:34;;;;;;;71.40;63.80;;;;;;;6.82;61.57;95909.41;5078542;28;20192;-74
2023/12/19 10:22:08;;;;;;;70.28;63.03;;;;;;;6.68;61.94;95907.53;5078365;28;20257;-74
2023/12/19 10:24:39;;;;;;;70.50;63.25;;;;;;;6.59;61.86;95911.28;5078714;28;20188;-72
2023/12/19 10:27:07;;;;;;;71.72;64.13;;;;;;;6.51;62.77;95905.41;5096136;28;20196;-72
2023/12/19 10:29:40;;;;;;;72.50;64.85;;;;;;;6.43;62.88;95897.91;5095842;28;20204;-74
2023/12/19 10:32:17;;;;;;;74.55;66.80;;;;;;;6.38;62.83;95894.47;5078597;28;20627;-74
2023/12/19 10:34:47;;;;;;;76.38;68.40;;;;;;;6.30;62.80;95885.03;5096281;28;20738;-74
2023/12/19 10:37:20;;;;;;;74.35;66.50;;;;;;;6.27;63.06;95875.50;5096637;28;20219;-74
2023/12/19 10:39:49;;;;;;;73.55;65.88;;;;;;;6.23;63.16;95871.75;5095543;28;20290;-74
2023/12/19 10:42:20;;;;;;;76.55;68.70;;;;;;;6.21;63.12;95867.69;5096261;28;20199;-73
2023/12/19 10:44:50;;;;;;;77.90;69.57;;;;;;;6.20;62.99;95866.88;5078159;28;20295;-73
2023/12/19 10:47:20;;;;;;;77.20;68.95;;;;;;;6.21;62.91;95856.75;5079092;28;20222;-72
2023/12/19 10:49:53;;;;;;;79.45;71.15;;;;;;;6.20;62.81;95844.16;5096089;28;20188;-72
2023/12/19 10:52:23;;;;;;;77.20;69.22;;;;;;;6.24;63.36;95839.66;5062359;28;20188;-73
2023/12/19 10:55:00;;;;;;;77.22;69.03;;;;;;;6.28;63.46;95837.94;5095893;28;20220;-73
2023/12/19 10:57:29;;;;;;;81.15;72.43;;;;;;;6.31;63.63;95831.84;5096472;28;20188;-74
2023/12/19 11:00:13;;;;;;;78.60;70.20;;;;;;;6.38;64.04;95831.44;5078412;28;20207;-74
2023/12/19 11:02:49;;;;;;;81.47;72.70;;;;;;;6.43;63.82;95821.19;5078228;28;20196;-74
2023/12/19 11:05:27;;;;;;;83.50;74.50;;;;;;;6.50;64.27;95818.03;5096071;28;20253;-74
2023/12/19 11:08:00;;;;;;;82.15;72.80;;;;;;;6.55;63.81;95815.16;5094553;28;20642;-74
2023/12/19 11:10:34;;;;;;;82.13;73.65;;;;;;;6.72;64.28;95809.03;5094582;28;20203;-74
2023/12/19 11:13:04;;;;;;;89.35;80.25;;;;;;;7.09;64.23;95796.06;5095131;28;20250;-74
2023/12/19 11:15:32;;;;;;;97.70;87.53;;;;;;;7.62;63.98;95796.00;5094495;28;20263;-74
2023/12/19 11:18:04;;;;;;;100.32;89.60;;;;;;;8.12;62.18;95786.66;5095675;28;20270;-74
2023/12/19 11:20:35;;;;;;;116.85;104.65;;;;;;;8.65;60.99;95769.16;5078114;28;20196;-73
2023/12/19 11:23:06;;;;;;;114.63;103.03;;;;;;;9.16;58.97;95768.28;5094692;28;20204;-73
2023/12/19 11:25:36;;;;;;;106.68;95.72;;;;;;;9.73;57.67;95771.81;5095335;28;20597;-74
2023/12/19 11:28:09;;;;;;;99.68;89.63;;;;;;;10.69;54.37;95759.13;5078058;28;20196;-74
2023/12/19 11:30:38;;;;;;;94.30;84.90;;;;;;;12.07;49.72;95758.84;5095778;28;20238;-73
2023/12/19 11:33:06;;;;;;;94.63;84.68;;;;;;;13.26;46.23;95750.19;5094713;28;20200;-73